Time;durP1;ratioP1;P1;durP2;ratioP2;P2;SDS_P1;SDS_P2;PMS_P1;PMS_P2;Temp;Humidity;BMP_temperature;BMP_pressure;BME280_temperature;BME280_humidity;BME280_pressure;Samples;Min_cycle;Max_cycle;Signal;HPM_P1;HPM_P2
2023/01/07 00:01:35;;;;;;;6.65;3.20;;;;;;;-19.07;56.62;100686.28;5073779;28;20107;-57
2023/01/07 00:04:02;;;;;;;9.20;3.47;;;;;;;-19.10;56.69;100678.47;5073409;28;20480;-57
2023/01/07 00:06:32;;;;;;;8.02;3.65;;;;;;;-19.17;56.77;100676.41;5073625;28;20128;-56
2023/01/07 00:08:59;;;;;;;7.63;3.45;;;;;;;-19.20;57.14;100685.66;5073118;28;20035;-54
2023/01/07 00:11:27;;;;;;;8.50;3.63;;;;;;;-19.43;56.81;100647.81;5073191;28;20028;-58
2023/01/07 00:13:54;;;;;;;12.23;4.35;;;;;;;-19.18;56.88;100674.66;5073203;28;20092;-58
2023/01/07 00:16:22;;;;;;;9.25;3.97;;;;;;;-19.08;56.93;100687.09;5073937;28;20031;-52
2023/01/07 00:18:50;;;;;;;12.18;3.85;;;;;;;-18.99;56.76;100687.59;5072911;28;20441;-56
2023/01/07 00:21:17;;;;;;;11.25;4.45;;;;;;;-18.96;56.88;100677.50;5073883;28;20460;-57
2023/01/07 00:23:44;;;;;;;11.20;3.90;;;;;;;-19.07;56.60;100670.97;5073024;28;20032;-57
2023/01/07 00:26:15;;;;;;;11.48;3.35;;;;;;;-19.05;56.33;100679.59;5074041;28;20033;-57
2023/01/07 00:28:43;;;;;;;12.57;4.03;;;;;;;-19.11;56.16;100685.28;5072965;28;20028;-54
2023/01/07 00:31:11;;;;;;;12.18;4.22;;;;;;;-19.17;56.14;100686.63;5073757;28;20115;-55
2023/01/07 00:33:46;;;;;;;10.70;4.35;;;;;;;-19.27;55.92;100687.78;5073174;28;20601;-54
2023/01/07 00:36:12;;;;;;;10.15;4.00;;;;;;;-19.35;56.30;100690.81;5073845;28;20115;-54
2023/01/07 00:38:38;;;;;;;11.35;4.38;;;;;;;-19.42;56.32;100682.75;5072991;28;20162;-57
2023/01/07 00:41:04;;;;;;;13.63;3.90;;;;;;;-19.50;56.28;100684.88;5073045;28;20302;-56
2023/01/07 00:43:29;;;;;;;10.05;4.53;;;;;;;-19.59;56.13;100680.16;5073441;28;20035;-58
2023/01/07 00:45:55;;;;;;;9.32;3.67;;;;;;;-19.59;56.50;100689.47;5073357;28;20032;-55
2023/01/07 00:48:22;;;;;;;7.78;3.45;;;;;;;-19.61;56.48;100689.38;5073037;28;20098;-58
2023/01/07 00:50:49;;;;;;;8.40;3.92;;;;;;;-19.62;56.81;100687.63;5073038;28;20037;-56
2023/01/07 00:53:14;;;;;;;11.10;4.03;;;;;;;-19.59;56.98;100675.03;5072828;28;20567;-56
2023/01/07 00:55:40;;;;;;;9.80;3.95;;;;;;;-19.78;56.74;100650.22;5072765;28;20111;-59
2023/01/07 00:58:05;;;;;;;13.13;4.15;;;;;;;-19.63;56.81;100678.22;5073161;28;20036;-55
2023/01/07 01:00:31;;;;;;;12.07;4.03;;;;;;;-19.66;56.62;100678.06;5071935;28;20024;-56
2023/01/07 01:02:58;;;;;;;11.38;4.45;;;;;;;-19.72;56.90;100677.72;5072746;28;20555;-56
2023/01/07 01:05:24;;;;;;;9.10;4.13;;;;;;;-19.70;56.83;100679.56;5073077;28;20032;-54
2023/01/07 01:07:49;;;;;;;12.10;4.40;;;;;;;-19.78;56.89;100663.81;5072034;28;20024;-58
2023/01/07 01:10:17;;;;;;;9.20;2.63;;;;;;;-19.69;56.82;100677.91;5071682;28;20460;-54
2023/01/07 01:12:43;;;;;;;9.85;3.55;;;;;;;-19.76;56.57;100675.81;5073080;28;20032;-58
2023/01/07 01:15:12;;;;;;;11.55;3.40;;;;;;;-19.76;56.93;100686.00;5073151;28;20028;-58
2023/01/07 01:17:38;;;;;;;12.32;4.40;;;;;;;-19.79;56.75;100681.59;5072413;28;20036;-58
2023/01/07 01:20:05;;;;;;;12.38;4.70;;;;;;;-19.70;57.11;100687.19;5072467;28;20032;-58
2023/01/07 01:22:31;;;;;;;16.05;4.53;;;;;;;-19.54;57.30;100688.91;5072767;28;20437;-58
2023/01/07 01:24:57;;;;;;;13.80;5.30;;;;;;;-19.39;56.90;100688.00;5072807;28;20360;-58
2023/01/07 01:27:23;;;;;;;14.18;4.82;;;;;;;-19.51;56.81;100652.50;5072246;28;20055;-58
2023/01/07 01:29:48;;;;;;;10.23;3.90;;;;;;;-19.15;57.01;100691.00;5072263;28;20025;-58
2023/01/07 01:32:13;;;;;;;10.18;3.88;;;;;;;-19.06;56.62;100699.16;5072597;28;20117;-59
2023/01/07 01:34:39;;;;;;;11.38;4.28;;;;;;;-19.04;56.27;100699.25;5072934;28;20037;-60
2023/01/07 01:37:04;;;;;;;10.40;4.45;;;;;;;-19.08;56.26;100710.06;5072255;28;20044;-59
2023/01/07 01:39:30;;;;;;;14.43;3.80;;;;;;;-19.17;56.18;100719.78;5072514;28;20060;-56
2023/01/07 01:41:55;;;;;;;10.38;4.32;;;;;;;-19.56;56.03;100665.00;5071097;28;20043;-56
2023/01/07 01:44:48;;;;;;;12.20;4.40;;;;;;;-19.37;56.23;100707.72;5071565;28;20461;-57
2023/01/07 01:47:41;;;;;;;5.88;2.90;;;;;;;-19.42;56.59;100721.00;5071686;28;20032;-55
2023/01/07 01:50:12;;;;;;;8.63;3.40;;;;;;;-19.51;56.91;100726.47;5071801;28;20032;-57
2023/01/07 01:52:51;;;;;;;8.23;3.28;;;;;;;-19.58;56.66;100727.81;5072275;28;20032;-55
2023/01/07 01:55:20;;;;;;;7.03;2.08;;;;;;;-19.64;56.58;100730.03;5071404;28;20079;-59
2023/01/07 01:57:49;;;;;;;9.93;3.33;;;;;;;-19.64;57.04;100736.03;5071841;28;20056;-56
2023/01/07 02:00:15;;;;;;;11.50;3.35;;;;;;;-19.63;57.13;100740.31;5072553;28;20098;-59
2023/01/07 02:03:00;;;;;;;7.25;2.65;;;;;;;-19.63;57.11;100736.88;5072600;28;20032;-57
2023/01/07 02:05:31;;;;;;;6.97;2.60;;;;;;;-19.61;57.14;100742.94;5072217;28;20448;-64
2023/01/07 02:07:57;;;;;;;4.85;2.35;;;;;;;-19.57;57.25;100744.00;5072253;28;20428;-64
2023/01/07 02:10:23;;;;;;;6.05;2.00;;;;;;;-19.60;57.38;100749.81;5072117;28;20072;-63
2023/01/07 02:12:48;;;;;;;3.85;2.00;;;;;;;-19.65;57.20;100756.31;5071690;28;20337;-59
2023/01/07 02:15:31;;;;;;;8.77;2.45;;;;;;;-19.73;57.64;100752.47;5072469;28;20055;-58
2023/01/07 02:18:24;;;;;;;5.05;2.13;;;;;;;-19.73;57.31;100758.44;5054312;28;20411;-63
2023/01/07 02:20:58;;;;;;;8.52;2.65;;;;;;;-19.84;57.11;100760.38;5070942;28;20138;-63
2023/01/07 02:23:33;;;;;;;9.25;2.30;;;;;;;-19.91;57.33;100765.94;5071977;28;20025;-64
2023/01/07 02:26:17;;;;;;;11.00;2.85;;;;;;;-19.99;57.41;100770.59;5071787;28;20032;-63
2023/01/07 02:28:53;;;;;;;9.70;3.25;;;;;;;-20.03;57.52;100762.69;5071944;28;20036;-64
2023/01/07 02:31:43;;;;;;;7.93;3.67;;;;;;;-20.05;57.47;100770.25;5072153;28;20484;-65
2023/01/07 02:34:27;;;;;;;13.35;3.15;;;;;;;-20.08;57.40;100776.03;5071507;28;20049;-64
2023/01/07 02:37:24;;;;;;;9.90;2.75;;;;;;;-20.17;57.40;100782.25;5071774;28;20068;-64
2023/01/07 02:40:09;;;;;;;11.32;3.50;;;;;;;-20.26;57.35;100777.50;5071104;28;20048;-65
2023/01/07 02:43:12;;;;;;;11.35;4.15;;;;;;;-20.42;57.40;100781.72;5071890;28;20032;-65
2023/01/07 02:45:46;;;;;;;6.75;2.67;;;;;;;-20.55;57.30;100785.19;5071580;28;20024;-65
2023/01/07 02:48:14;;;;;;;11.25;3.30;;;;;;;-20.60;57.38;100789.13;5071547;28;20028;-65
2023/01/07 02:50:39;;;;;;;11.00;2.60;;;;;;;-20.56;57.58;100785.97;5072017;28;20033;-64
2023/01/07 02:53:09;;;;;;;9.57;2.83;;;;;;;-20.60;57.15;100795.88;5071684;28;20035;-64
2023/01/07 02:55:35;;;;;;;7.60;2.20;;;;;;;-20.58;57.42;100801.94;5073437;28;20028;-64
2023/01/07 02:58:07;;;;;;;8.25;2.63;;;;;;;-20.59;57.49;100810.38;5075408;28;20094;-64
2023/01/07 03:01:08;;;;;;;10.27;3.38;;;;;;;-20.66;57.52;100814.19;5075409;28;20036;-65
2023/01/07 03:03:42;;;;;;;10.90;2.70;;;;;;;-20.69;57.33;100820.00;5074709;28;20473;-58
2023/01/07 03:06:11;;;;;;;5.65;1.90;;;;;;;-20.68;57.60;100819.22;5074186;28;20124;-58
2023/01/07 03:08:55;;;;;;;7.50;1.85;;;;;;;-20.67;57.23;100826.06;5075121;28;20412;-55
2023/01/07 03:11:23;;;;;;;8.00;2.30;;;;;;;-20.66;57.49;100826.94;5075073;28;20376;-56
2023/01/07 03:14:08;;;;;;;12.77;3.80;;;;;;;-20.66;57.30;100835.47;5074035;28;20041;-57
2023/01/07 03:16:38;;;;;;;4.32;2.00;;;;;;;-20.67;57.14;100825.16;5074869;28;20448;-57
2023/01/07 03:19:19;;;;;;;6.43;2.63;;;;;;;-20.65;57.47;100824.50;5075163;28;20063;-58
2023/01/07 03:21:49;;;;;;;14.02;3.05;;;;;;;-20.58;57.42;100835.03;5073977;28;20020;-60
2023/01/07 03:24:15;;;;;;;11.45;3.05;;;;;;;-20.59;57.50;100843.47;5074750;28;20399;-61
2023/01/07 03:26:45;;;;;;;8.82;2.58;;;;;;;-20.77;56.93;100805.03;5074696;28;20528;-52
2023/01/07 03:29:14;;;;;;;10.05;3.47;;;;;;;-20.56;56.99;100846.19;5074956;28;20032;-59
2023/01/07 03:31:50;;;;;;;7.93;2.70;;;;;;;-20.57;57.22;100847.88;5073716;28;20090;-55
2023/01/07 03:34:19;;;;;;;9.90;3.78;;;;;;;-20.54;57.02;100848.06;5074597;28;20113;-58
2023/01/07 03:36:52;;;;;;;17.48;4.28;;;;;;;-20.53;56.86;100838.75;5073251;28;20041;-62
2023/01/07 03:39:22;;;;;;;11.35;3.55;;;;;;;-20.58;56.79;100840.13;5074693;28;20040;-62
2023/01/07 03:44:33;;;;;;;14.98;3.40;;;;;;;-20.66;56.77;100847.31;5074313;28;20330;-57
2023/01/07 03:46:58;;;;;;;12.15;3.92;;;;;;;-20.95;56.73;100806.59;5074452;28;20039;-53
2023/01/07 03:49:24;;;;;;;7.75;2.58;;;;;;;-20.66;56.95;100849.84;5073382;28;20109;-57
2023/01/07 03:51:50;;;;;;;10.90;2.72;;;;;;;-20.63;56.92;100860.22;5074265;28;20027;-56
2023/01/07 03:54:16;;;;;;;9.32;2.90;;;;;;;-20.65;57.01;100846.50;5074343;28;20473;-57
2023/01/07 03:56:41;;;;;;;6.43;2.35;;;;;;;-20.69;56.80;100852.22;5074192;28;20199;-57
2023/01/07 03:59:06;;;;;;;11.23;2.85;;;;;;;-20.76;56.75;100853.47;5074000;28;20173;-59
2023/01/07 04:01:32;;;;;;;7.80;2.35;;;;;;;-21.04;56.59;100800.91;5072924;28;20029;-58
2023/01/07 04:03:57;;;;;;;8.43;2.45;;;;;;;-20.74;56.79;100857.00;5073994;28;20098;-59
2023/01/07 04:06:23;;;;;;;6.32;2.35;;;;;;;-20.77;56.62;100855.94;5073282;28;20463;-60
2023/01/07 04:08:48;;;;;;;4.90;1.80;;;;;;;-20.82;56.97;100850.59;5074266;28;20025;-58
2023/01/07 04:11:14;;;;;;;5.38;1.63;;;;;;;-20.75;57.07;100865.44;5074031;28;20035;-60
2023/01/07 04:13:39;;;;;;;8.10;2.83;;;;;;;-20.77;57.09;100867.00;5073579;28;20419;-58
2023/01/07 04:16:05;;;;;;;6.05;2.83;;;;;;;-20.87;56.83;100859.63;5073501;28;20017;-57
2023/01/07 04:18:30;;;;;;;8.07;2.35;;;;;;;-20.87;57.35;100855.38;5073999;28;20174;-57
2023/01/07 04:20:55;;;;;;;7.72;2.40;;;;;;;-20.84;56.92;100872.53;5073717;28;20025;-61
2023/01/07 04:23:21;;;;;;;7.03;2.22;;;;;;;-21.11;56.94;100822.53;5073811;28;20411;-58
2023/01/07 04:25:47;;;;;;;8.57;2.53;;;;;;;-20.83;57.00;100871.75;5073342;28;20459;-57
2023/01/07 04:28:13;;;;;;;4.32;1.60;;;;;;;-20.81;57.02;100872.72;5073686;28;20123;-58
2023/01/07 04:30:38;;;;;;;6.18;2.10;;;;;;;-20.79;57.36;100892.38;5072285;28;20016;-57
2023/01/07 04:33:04;;;;;;;6.47;2.65;;;;;;;-20.81;57.02;100880.34;5073079;28;20056;-59
2023/01/07 04:35:31;;;;;;;8.68;3.40;;;;;;;-20.88;56.93;100874.00;5073364;28;20039;-61
2023/01/07 04:37:56;;;;;;;5.97;1.95;;;;;;;-20.87;57.05;100879.97;5069238;28;20399;-60
2023/01/07 04:40:22;;;;;;;6.95;2.20;;;;;;;-20.88;57.12;100873.13;5062634;28;20039;-73
2023/01/07 04:42:48;;;;;;;12.32;3.15;;;;;;;-20.94;57.14;100874.50;5062470;28;20029;-58
2023/01/07 04:45:13;;;;;;;8.65;2.35;;;;;;;-20.94;56.96;100882.16;5064913;28;20017;-67
2023/01/07 04:47:38;;;;;;;6.07;2.03;;;;;;;-20.97;56.70;100868.34;5062955;28;20059;-62
2023/01/07 04:50:04;;;;;;;9.40;2.35;;;;;;;-21.14;56.81;100835.06;5049897;28;20028;-66
2023/01/07 04:52:30;;;;;;;6.68;1.98;;;;;;;-20.91;56.96;100884.00;5072871;28;20089;-67
2023/01/07 04:54:56;;;;;;;7.45;2.58;;;;;;;-20.91;56.99;100878.91;5073324;28;20028;-60
2023/01/07 04:57:21;;;;;;;4.47;1.85;;;;;;;-20.87;56.95;100879.97;5072597;28;20098;-56
2023/01/07 04:59:47;;;;;;;12.00;2.20;;;;;;;-20.85;56.83;100880.97;5072816;28;20123;-58
2023/01/07 05:02:12;;;;;;;8.90;2.30;;;;;;;-20.84;56.66;100890.34;5071944;28;20021;-58
2023/01/07 05:04:38;;;;;;;11.68;3.15;;;;;;;-20.88;56.94;100898.59;5066103;28;20127;-64
2023/01/07 05:07:03;;;;;;;13.57;2.50;;;;;;;-20.92;57.03;100900.03;5073083;28;20082;-64
2023/01/07 05:09:28;;;;;;;8.57;3.05;;;;;;;-21.05;56.98;100888.19;5072797;28;20032;-63
2023/01/07 05:11:54;;;;;;;9.20;3.03;;;;;;;-21.15;56.88;100912.16;5072039;28;20036;-64
2023/01/07 05:14:19;;;;;;;6.28;1.55;;;;;;;-21.16;56.54;100912.94;5072595;28;20032;-63
2023/01/07 05:16:45;;;;;;;6.18;2.10;;;;;;;-21.27;56.66;100899.53;5073024;28;20036;-64
2023/01/07 05:19:10;;;;;;;8.68;2.15;;;;;;;-21.17;57.06;100912.88;5071757;28;20020;-69
2023/01/07 05:21:36;;;;;;;5.70;1.63;;;;;;;-21.13;56.92;100919.91;5054762;28;20029;-64
2023/01/07 05:24:02;;;;;;;14.18;2.53;;;;;;;-21.26;56.46;100924.19;5073061;28;20033;-67
2023/01/07 05:26:27;;;;;;;10.55;3.30;;;;;;;-21.26;56.66;100921.66;5071674;28;20089;-64
2023/01/07 05:28:53;;;;;;;9.40;2.55;;;;;;;-21.24;56.52;100922.63;5072531;28;20521;-66
2023/01/07 05:31:19;;;;;;;4.93;2.15;;;;;;;-21.20;56.63;100949.16;5072502;28;20036;-65
2023/01/07 05:33:45;;;;;;;8.98;2.15;;;;;;;-21.20;56.54;100938.13;5072004;28;20070;-64
2023/01/07 05:36:11;;;;;;;5.07;1.77;;;;;;;-21.22;56.24;100935.47;5071913;28;20085;-65
2023/01/07 05:38:37;;;;;;;8.80;2.08;;;;;;;-21.41;56.69;100908.81;5071060;28;20032;-66
2023/01/07 05:41:03;;;;;;;8.43;2.75;;;;;;;-21.24;56.63;100953.16;5071345;28;20041;-65
2023/01/07 05:43:28;;;;;;;12.65;3.17;;;;;;;-21.28;56.47;100956.28;5072408;28;20360;-65
2023/01/07 05:45:54;;;;;;;11.27;2.83;;;;;;;-21.21;56.89;100960.13;5071676;28;20413;-66
2023/01/07 05:48:20;;;;;;;12.23;2.40;;;;;;;-21.25;56.81;100953.06;5072368;28;20025;-65
2023/01/07 05:50:46;;;;;;;6.38;2.13;;;;;;;-21.23;56.92;100947.28;5072426;28;20039;-67
2023/01/07 05:53:12;;;;;;;8.52;2.50;;;;;;;-21.18;56.81;100954.34;5070849;28;20040;-65
2023/01/07 05:55:37;;;;;;;12.35;2.00;;;;;;;-21.12;56.16;100972.56;5072100;28;20028;-60
2023/01/07 05:58:03;;;;;;;14.75;2.00;;;;;;;-21.13;56.43;100963.16;5063240;28;20074;-60
2023/01/07 06:00:29;;;;;;;7.72;2.13;;;;;;;-21.05;56.58;100973.84;5071787;28;20074;-60
2023/01/07 06:02:54;;;;;;;6.50;1.88;;;;;;;-20.99;56.54;100970.00;5067354;28;20053;-60
2023/01/07 06:05:21;;;;;;;9.45;2.47;;;;;;;-20.96;56.42;100972.78;5071213;28;20040;-60
2023/01/07 06:07:47;;;;;;;6.53;2.42;;;;;;;-20.92;56.29;100980.63;5071875;28;20024;-62
2023/01/07 06:10:12;;;;;;;7.47;1.98;;;;;;;-20.90;56.50;100976.50;5071958;28;20344;-62
2023/01/07 06:12:38;;;;;;;9.38;2.25;;;;;;;-21.10;56.23;100938.78;5068815;28;20436;-60
2023/01/07 06:15:05;;;;;;;9.80;2.92;;;;;;;-21.06;56.23;100944.97;5070905;28;20346;-61
2023/01/07 06:17:32;;;;;;;10.15;2.67;;;;;;;-20.86;56.49;100984.41;5072724;28;20107;-58
2023/01/07 06:19:57;;;;;;;9.27;2.67;;;;;;;-21.04;56.12;100943.41;5071831;28;20056;-60
2023/01/07 06:22:23;;;;;;;9.25;2.42;;;;;;;-20.76;56.26;100985.84;5071049;28;20143;-57
2023/01/07 06:24:48;;;;;;;9.73;2.78;;;;;;;-20.71;56.05;100983.63;5087136;28;20516;-59
2023/01/07 06:27:13;;;;;;;7.60;2.28;;;;;;;-20.60;55.85;101013.22;5071298;28;20483;-62
2023/01/07 06:29:39;;;;;;;6.65;2.30;;;;;;;-20.61;55.71;101015.66;5073362;28;20048;-72
2023/01/07 06:32:05;;;;;;;5.68;2.10;;;;;;;-20.54;55.69;101012.69;5076576;28;20036;-71
2023/01/07 06:34:30;;;;;;;13.50;2.65;;;;;;;-20.52;55.95;101019.66;5074525;28;20051;-61
2023/01/07 06:36:56;;;;;;;16.15;2.58;;;;;;;-20.49;55.61;101026.63;5075349;28;20447;-61
2023/01/07 06:39:21;;;;;;;5.63;2.13;;;;;;;-20.40;55.40;101027.22;5075352;28;20372;-63
2023/01/07 06:41:47;;;;;;;6.03;2.13;;;;;;;-20.29;55.60;101027.00;5073594;28;20037;-64
2023/01/07 06:44:12;;;;;;;6.07;2.30;;;;;;;-20.15;55.66;101032.97;5073886;28;20025;-64
2023/01/07 06:46:38;;;;;;;11.30;3.10;;;;;;;-20.04;55.50;101025.97;5073649;28;20028;-62
2023/01/07 06:49:03;;;;;;;9.68;2.60;;;;;;;-19.96;55.10;101022.25;5074090;28;20052;-63
2023/01/07 06:51:29;;;;;;;7.47;1.85;;;;;;;-19.73;54.84;101038.06;5073989;28;20051;-62
2023/01/07 06:53:54;;;;;;;7.93;2.63;;;;;;;-19.04;56.12;101032.75;5073705;28;20032;-61
2023/01/07 06:56:20;;;;;;;7.55;2.00;;;;;;;-16.44;55.51;101040.44;5073711;28;20345;-63
2023/01/07 06:58:45;;;;;;;12.35;3.38;;;;;;;-13.30;50.41;101032.91;5074986;28;20436;-64
2023/01/07 07:01:11;;;;;;;14.32;4.25;;;;;;;-10.65;45.58;101019.41;5074303;28;20032;-63
2023/01/07 07:03:36;;;;;;;15.98;4.53;;;;;;;-8.62;41.91;101011.56;5074497;28;20029;-63
2023/01/07 07:06:02;;;;;;;12.77;4.25;;;;;;;-7.30;38.54;101003.91;5074766;28;20054;-61
2023/01/07 07:08:27;;;;;;;17.45;6.38;;;;;;;-7.18;34.89;101011.00;5072284;28;20036;-63
2023/01/07 07:10:53;;;;;;;17.35;5.50;;;;;;;-7.80;37.06;101008.50;5073962;28;20066;-66
2023/01/07 07:13:18;;;;;;;14.70;5.28;;;;;;;-8.15;38.14;101010.56;5074158;28;20178;-65
2023/01/07 07:15:44;;;;;;;14.68;5.38;;;;;;;-7.59;37.58;101012.25;5072342;28;20041;-64
2023/01/07 07:18:09;;;;;;;12.98;4.97;;;;;;;-6.46;35.33;101006.50;5074082;28;20112;-64
2023/01/07 07:20:34;;;;;;;17.38;5.55;;;;;;;-5.43;33.94;101019.28;5074668;28;20028;-65
2023/01/07 07:23:01;;;;;;;19.50;5.38;;;;;;;-4.36;32.58;101005.59;5074686;28;20070;-64
2023/01/07 07:25:27;;;;;;;16.60;6.55;;;;;;;-3.52;31.04;101021.19;5074501;28;20364;-64
2023/01/07 07:27:52;;;;;;;14.73;6.13;;;;;;;-3.05;29.48;101017.50;5074533;28;20063;-64
2023/01/07 07:30:17;;;;;;;15.40;5.45;;;;;;;-2.90;28.73;101019.16;5072785;28;20036;-66
2023/01/07 07:32:43;;;;;;;16.48;6.63;;;;;;;-3.00;27.71;101027.06;5073413;28;20493;-64
2023/01/07 07:35:10;;;;;;;11.82;5.57;;;;;;;-4.06;27.78;101035.25;5074016;28;20032;-63
2023/01/07 07:37:36;;;;;;;13.52;5.68;;;;;;;-5.55;29.28;101046.19;5074107;28;20409;-63
2023/01/07 07:40:02;;;;;;;13.07;5.03;;;;;;;-7.27;30.98;101047.28;5073946;28;20047;-64
2023/01/07 07:42:30;;;;;;;16.55;5.45;;;;;;;-9.10;31.59;101029.72;5073273;28;20033;-64
2023/01/07 07:44:55;;;;;;;12.85;4.85;;;;;;;-10.32;33.49;101071.97;5073392;28;20032;-64
2023/01/07 07:47:21;;;;;;;14.98;5.10;;;;;;;-11.69;35.45;101081.22;5074505;28;20448;-65
2023/01/07 07:49:46;;;;;;;13.18;4.78;;;;;;;-13.04;37.12;101081.94;5073773;28;20025;-64
2023/01/07 07:52:12;;;;;;;14.88;4.40;;;;;;;-14.11;38.79;101075.38;5074243;28;20119;-60
2023/01/07 07:54:37;;;;;;;15.10;4.32;;;;;;;-14.80;40.22;101097.47;5072582;28;20028;-64
2023/01/07 07:57:03;;;;;;;15.32;5.82;;;;;;;-15.47;40.67;101100.53;5073703;28;20368;-64
2023/01/07 07:59:29;;;;;;;20.40;6.85;;;;;;;-15.98;41.81;101102.47;5073624;28;20050;-65
2023/01/07 08:01:54;;;;;;;19.20;5.43;;;;;;;-16.37;42.38;101113.44;5073820;28;20021;-64
2023/01/07 08:04:20;;;;;;;10.00;3.47;;;;;;;-16.69;43.46;101099.88;5072780;28;20039;-60
2023/01/07 08:06:45;;;;;;;17.48;4.13;;;;;;;-16.87;43.90;101116.06;5073395;28;20032;-61
2023/01/07 08:09:11;;;;;;;13.75;5.78;;;;;;;-17.08;44.16;101114.19;5073279;28;20029;-62
2023/01/07 08:11:36;;;;;;;23.60;6.60;;;;;;;-17.14;44.63;101118.09;5072953;28;20032;-64
2023/01/07 08:14:02;;;;;;;20.08;6.53;;;;;;;-17.28;44.81;101109.69;5073353;28;20024;-61
2023/01/07 08:16:27;;;;;;;23.65;6.88;;;;;;;-17.37;45.15;101112.66;5073179;28;20103;-62
2023/01/07 08:18:53;;;;;;;16.50;5.68;;;;;;;-17.36;45.26;101114.41;5073453;28;20032;-63
2023/01/07 08:21:18;;;;;;;15.05;4.65;;;;;;;-17.41;45.32;101116.75;5072760;28;20031;-64
2023/01/07 08:23:43;;;;;;;11.90;3.97;;;;;;;-17.39;45.09;101115.13;5061550;28;20036;-62
2023/01/07 08:26:09;;;;;;;15.10;5.43;;;;;;;-17.49;44.79;101118.88;5064501;28;20471;-62
2023/01/07 08:28:35;;;;;;;11.18;4.18;;;;;;;-17.53;45.18;101118.63;5062292;28;20056;-60
2023/01/07 08:31:02;;;;;;;10.68;3.70;;;;;;;-17.63;44.94;101119.81;5068636;28;20017;-65
2023/01/07 08:33:29;;;;;;;16.27;4.50;;;;;;;-17.65;45.62;101118.84;5072125;28;20131;-64
2023/01/07 08:35:54;;;;;;;12.38;3.92;;;;;;;-17.73;45.76;101112.44;5072538;28;20135;-65
2023/01/07 08:38:20;;;;;;;8.40;3.65;;;;;;;-17.75;45.77;101110.69;5070625;28;20497;-65
2023/01/07 08:40:45;;;;;;;10.55;3.65;;;;;;;-17.71;45.86;101103.16;5072014;28;20040;-65
2023/01/07 08:43:11;;;;;;;9.88;3.47;;;;;;;-17.60;45.96;101117.41;5070131;28;20032;-65
2023/01/07 08:45:37;;;;;;;9.57;3.83;;;;;;;-17.72;45.73;101120.22;5072823;28;20588;-65
2023/01/07 08:48:03;;;;;;;8.73;3.47;;;;;;;-17.70;46.45;101115.16;5069414;28;20141;-65
2023/01/07 08:50:31;;;;;;;10.10;2.92;;;;;;;-17.58;46.74;101118.41;5071753;28;20036;-65
2023/01/07 08:52:58;;;;;;;5.22;2.33;;;;;;;-17.42;46.71;101121.75;5071835;28;20196;-65
2023/01/07 08:55:24;;;;;;;9.98;2.65;;;;;;;-17.27;46.38;101121.69;5072120;28;20040;-65
2023/01/07 08:57:50;;;;;;;10.43;4.00;;;;;;;-17.28;45.69;101127.63;5070076;28;20483;-64
2023/01/07 09:00:18;;;;;;;9.40;3.88;;;;;;;-17.27;45.63;101127.72;5072037;28;20428;-65
2023/01/07 09:02:44;;;;;;;12.23;3.80;;;;;;;-17.24;45.93;101130.44;5072313;28;20032;-64
2023/01/07 09:05:10;;;;;;;13.48;3.83;;;;;;;-17.26;46.09;101116.69;5072847;28;20086;-66
2023/01/07 09:07:36;;;;;;;11.52;4.50;;;;;;;-17.14;46.29;101141.16;5072941;28;20056;-64
2023/01/07 09:10:02;;;;;;;12.75;4.40;;;;;;;-17.32;46.32;101096.75;5072285;28;20036;-68
2023/01/07 09:12:29;;;;;;;19.75;5.72;;;;;;;-16.99;45.99;101136.84;5071479;28;20123;-66
2023/01/07 09:14:54;;;;;;;15.07;4.78;;;;;;;-17.05;45.77;101136.53;5072512;28;20098;-66
2023/01/07 09:17:20;;;;;;;12.07;4.32;;;;;;;-17.11;46.17;101120.84;5072489;28;20032;-61
2023/01/07 09:19:45;;;;;;;9.45;3.92;;;;;;;-17.11;46.22;101137.09;5071778;28;20012;-58
2023/01/07 09:22:11;;;;;;;11.18;4.75;;;;;;;-17.19;46.51;101135.81;5072161;28;20446;-57
2023/01/07 09:24:36;;;;;;;11.57;4.80;;;;;;;-17.25;46.80;101138.91;5072448;28;20102;-62
2023/01/07 09:27:01;;;;;;;12.98;4.95;;;;;;;-17.24;46.98;101142.34;5072289;28;20044;-63
2023/01/07 09:29:27;;;;;;;10.68;4.25;;;;;;;-17.15;47.12;101141.97;5071848;28;20032;-64
2023/01/07 09:31:52;;;;;;;21.48;6.68;;;;;;;-17.12;47.23;101134.44;5071115;28;20036;-63
2023/01/07 09:34:18;;;;;;;17.13;7.75;;;;;;;-17.06;46.71;101129.66;5062828;28;20045;-64
2023/01/07 09:36:43;;;;;;;20.65;7.05;;;;;;;-17.04;47.28;101133.19;5061408;28;20058;-64
2023/01/07 09:39:10;;;;;;;15.70;4.88;;;;;;;-17.05;46.77;101136.53;5061584;28;20036;-63
2023/01/07 09:41:42;;;;;;;17.15;6.00;;;;;;;-17.24;46.51;101145.78;5060466;28;20012;-63
2023/01/07 09:44:31;;;;;;;15.25;5.13;;;;;;;-17.41;47.04;101138.88;5069907;28;20460;-63
2023/01/07 09:46:57;;;;;;;19.45;4.35;;;;;;;-17.48;47.63;101130.88;5041838;28;20112;-63
2023/01/07 09:49:28;;;;;;;18.92;5.05;;;;;;;-17.48;47.41;101129.97;5066561;28;20028;-63
2023/01/07 09:52:00;;;;;;;21.40;4.97;;;;;;;-17.62;47.52;101130.13;5072060;28;20491;-62
2023/01/07 09:54:35;;;;;;;14.60;4.90;;;;;;;-17.66;48.16;101135.00;5071483;28;20111;-63
2023/01/07 09:57:02;;;;;;;12.15;4.55;;;;;;;-17.66;47.87;101141.00;5071817;28;20121;-60
2023/01/07 09:59:28;;;;;;;16.55;4.93;;;;;;;-17.76;48.27;101126.81;5071522;28;20158;-60
2023/01/07 10:02:18;;;;;;;13.30;5.22;;;;;;;-17.67;48.38;101148.59;5071872;28;20436;-62
2023/01/07 10:05:25;;;;;;;19.35;4.93;;;;;;;-17.68;48.22;101151.94;5072605;28;20330;-57
2023/01/07 10:08:13;;;;;;;16.45;5.30;;;;;;;-17.83;48.70;101147.75;5042205;28;20037;-60
2023/01/07 10:10:59;;;;;;;18.70;6.13;;;;;;;-17.86;48.87;101154.38;5073088;28;20616;-54
2023/01/07 10:13:47;;;;;;;15.57;5.85;;;;;;;-17.93;49.16;101159.16;5075756;28;20506;-59
2023/01/07 10:16:37;;;;;;;14.98;5.00;;;;;;;-17.85;48.90;101156.13;5074939;28;20071;-58
2023/01/07 10:19:21;;;;;;;12.32;3.92;;;;;;;-17.86;48.81;101150.13;5075254;28;20039;-56
2023/01/07 10:22:01;;;;;;;18.88;5.57;;;;;;;-17.84;48.93;101155.31;5075667;28;20059;-57
2023/01/07 10:24:32;;;;;;;11.55;4.03;;;;;;;-17.83;48.90;101147.75;5075464;28;20037;-60
2023/01/07 10:27:06;;;;;;;13.77;4.40;;;;;;;-17.76;49.14;101149.84;5075643;28;20031;-57
2023/01/07 10:29:41;;;;;;;13.57;5.57;;;;;;;-17.81;49.11;101124.78;5075771;28;20028;-59
2023/01/07 10:32:23;;;;;;;22.92;6.13;;;;;;;-17.50;48.91;101155.53;5075530;28;20070;-58
2023/01/07 10:34:52;;;;;;;15.00;5.72;;;;;;;-17.52;49.00;101146.88;5075336;28;20452;-59
2023/01/07 10:37:30;;;;;;;13.57;4.47;;;;;;;-17.48;48.68;101151.34;5074862;28;20028;-58
2023/01/07 10:40:14;;;;;;;11.02;4.30;;;;;;;-17.42;48.96;101148.25;5075407;28;20084;-56
2023/01/07 10:42:59;;;;;;;10.68;4.00;;;;;;;-17.35;48.55;101150.34;5075591;28;20440;-59
2023/01/07 10:45:28;;;;;;;12.18;4.25;;;;;;;-17.27;48.55;101154.97;5086864;28;20051;-56
2023/01/07 10:48:05;;;;;;;10.25;4.63;;;;;;;-17.22;48.83;101153.56;5085517;28;20127;-60
2023/01/07 10:50:34;;;;;;;10.55;4.22;;;;;;;-17.27;48.30;101161.00;5072619;28;20518;-59
2023/01/07 10:53:28;;;;;;;13.68;4.88;;;;;;;-17.33;48.69;101158.97;5075305;28;20036;-57
2023/01/07 10:56:03;;;;;;;12.52;4.72;;;;;;;-17.30;49.00;101153.16;5075099;28;20024;-61
2023/01/07 10:58:38;;;;;;;14.10;4.60;;;;;;;-17.27;48.76;101155.88;5074167;28;20039;-58
2023/01/07 11:01:05;;;;;;;11.48;4.03;;;;;;;-17.29;48.92;101151.47;5074745;28;20575;-62
2023/01/07 11:03:32;;;;;;;12.68;5.32;;;;;;;-17.22;49.51;101162.13;5074335;28;20487;-64
2023/01/07 11:06:04;;;;;;;13.05;4.90;;;;;;;-17.13;49.24;101160.84;5075168;28;20055;-62
2023/01/07 11:08:48;;;;;;;13.38;4.55;;;;;;;-17.05;49.32;101157.03;5074748;28;20035;-64
2023/01/07 11:11:19;;;;;;;15.43;5.32;;;;;;;-17.03;49.27;101156.28;5075156;28;20085;-66
2023/01/07 11:13:55;;;;;;;12.93;4.65;;;;;;;-17.00;48.93;101160.72;5074460;28;20167;-66
2023/01/07 11:16:26;;;;;;;19.17;6.35;;;;;;;-17.00;48.81;101159.81;5073328;28;20494;-66
2023/01/07 11:19:08;;;;;;;17.73;7.20;;;;;;;-17.00;48.92;101154.69;5074305;28;20111;-66
2023/01/07 11:21:39;;;;;;;22.85;7.82;;;;;;;-16.94;49.22;101165.25;5074288;28;20445;-66
2023/01/07 11:24:28;;;;;;;18.08;6.47;;;;;;;-16.85;49.52;101154.59;5074891;28;20040;-66